Kendricktown, Missouri
Current Conditions -  °F | °C
As of 12:53 AM on Thursday 23 Oct 2014 (Local Time) from KJLN Reporting Station
Clear Clear  
Wind Chill: 57°   Ceiling: Unl
Heat Index: 57°   Visibility: 10mi
Dew Point: 51°   Wind: 7mph
Humidity: 81%   Direction: 150°SSE
Pressure: 30.14"   Gusts: NA
Location:  37.1542°N, 94.2882°W
Report Text: KJLN 230553Z AUTO 15006KT 10SM CLR 14/11 A3014 RMK AO2 SLP199 T01390106 10189 20139 402330117 58004
Loading
Personal Weather Stations






























Interactive Weather Map
Tropical Storm Tracking
New forecast layout! Learn more

10-Day Weather Forecast

Advertisements
Track Severe Weather on mobile